Time;durP1;ratioP1;P1;durP2;ratioP2;P2;SDS_P1;SDS_P2;PMS_P1;PMS_P2;Temp;Humidity;BMP_temperature;BMP_pressure;BME280_temperature;BME280_humidity;BME280_pressure;Samples;Min_cycle;Max_cycle;Signal;HPM_P1;HPM_P2
2021/09/03 00:01:54;;;;;;;10.48;7.43;;;28.90;99.90;;;;;;4196300;28;20573;-69
2021/09/03 00:03:58;;;;;;;14.02;7.88;;;28.90;99.90;;;;;;4212892;28;20066;-69
2021/09/03 00:06:03;;;;;;;11.20;7.88;;;28.90;99.90;;;;;;4229363;28;20051;-69
2021/09/03 00:08:07;;;;;;;14.45;7.57;;;28.90;99.90;;;;;;4229660;28;20058;-69
2021/09/03 00:10:12;;;;;;;9.32;7.53;;;29.00;99.90;;;;;;4229591;28;20050;-70
2021/09/03 00:12:17;;;;;;;11.43;6.88;;;29.00;99.90;;;;;;4229780;28;20039;-69
2021/09/03 00:14:21;;;;;;;11.90;6.82;;;29.00;99.90;;;;;;4229419;28;20051;-71
2021/09/03 00:16:26;;;;;;;9.77;6.60;;;29.10;99.90;;;;;;4229257;28;20055;-70
2021/09/03 00:18:30;;;;;;;12.02;6.93;;;29.20;99.90;;;;;;4232252;27;20047;-70
2021/09/03 00:20:35;;;;;;;11.15;6.95;;;29.20;99.90;;;;;;4239346;27;20043;-69
2021/09/03 00:22:39;;;;;;;10.52;6.93;;;29.30;99.90;;;;;;4234480;27;20036;-69
2021/09/03 00:24:44;;;;;;;9.95;7.47;;;29.30;99.90;;;;;;4236687;27;20035;-71
2021/09/03 00:26:51;;;;;;;9.70;6.63;;;29.30;99.90;;;;;;4180800;28;20103;-70
2021/09/03 00:28:56;;;;;;;14.80;7.53;;;29.50;99.90;;;;;;4235536;27;20485;-70
2021/09/03 00:31:00;;;;;;;12.40;7.30;;;29.50;99.90;;;;;;4237178;27;20037;-70
2021/09/03 00:33:05;;;;;;;10.38;6.93;;;29.50;99.90;;;;;;4238936;27;20039;-70
2021/09/03 00:35:09;;;;;;;11.10;6.90;;;29.60;99.90;;;;;;4235608;27;20081;-70
2021/09/03 00:37:15;;;;;;;9.63;6.50;;;29.60;99.90;;;;;;4233610;27;20063;-70
2021/09/03 00:39:20;;;;;;;10.52;7.32;;;29.60;99.90;;;;;;4237572;27;20058;-70
2021/09/03 00:41:25;;;;;;;10.73;8.07;;;29.60;99.90;;;;;;4236978;28;20051;-70
2021/09/03 00:43:29;;;;;;;12.05;7.95;;;29.60;99.90;;;;;;4233565;28;20050;-70
2021/09/03 00:45:34;;;;;;;14.60;8.75;;;29.50;99.90;;;;;;4218270;28;20051;-70
2021/09/03 00:47:38;;;;;;;11.43;7.75;;;29.50;99.90;;;;;;4233311;28;20039;-70
2021/09/03 00:49:43;;;;;;;8.73;7.25;;;29.50;99.90;;;;;;4230994;28;20032;-70
2021/09/03 00:51:47;;;;;;;12.73;6.55;;;29.60;99.90;;;;;;4230110;28;20064;-71
2021/09/03 00:53:52;;;;;;;9.48;7.07;;;29.60;99.90;;;;;;4230181;28;20044;-71
2021/09/03 00:55:56;;;;;;;9.32;6.35;;;29.60;99.90;;;;;;4230692;28;20118;-71
2021/09/03 00:58:00;;;;;;;9.98;6.25;;;29.60;99.90;;;;;;4228962;28;20052;-71
2021/09/03 01:00:05;;;;;;;11.48;6.30;;;29.70;99.90;;;;;;4212165;28;20505;-72
2021/09/03 01:02:09;;;;;;;9.70;6.32;;;29.70;99.90;;;;;;4213331;28;20044;-71
2021/09/03 01:04:14;;;;;;;10.75;5.82;;;29.70;99.90;;;;;;4228635;28;20140;-71
2021/09/03 01:06:19;;;;;;;13.30;6.78;;;29.80;99.90;;;;;;4228980;28;20459;-70
2021/09/03 01:08:23;;;;;;;8.65;6.35;;;29.90;99.90;;;;;;4228725;28;20397;-70
2021/09/03 01:10:28;;;;;;;10.00;6.13;;;30.00;99.90;;;;;;4227784;28;20650;-70
2021/09/03 01:12:32;;;;;;;8.85;6.40;;;30.10;99.90;;;;;;4228381;28;20493;-70
2021/09/03 01:14:37;;;;;;;6.97;6.15;;;30.20;99.90;;;;;;4228482;28;20044;-70
2021/09/03 01:16:41;;;;;;;9.50;6.65;;;30.20;99.90;;;;;;4229097;28;20047;-70
2021/09/03 01:18:46;;;;;;;10.82;6.38;;;30.20;99.90;;;;;;4228353;28;20063;-69
2021/09/03 01:20:51;;;;;;;6.85;6.03;;;30.10;99.90;;;;;;4228812;28;20052;-69
2021/09/03 01:22:55;;;;;;;9.48;7.18;;;30.20;99.90;;;;;;4212714;28;20048;-70
2021/09/03 01:25:00;;;;;;;10.10;6.45;;;30.10;99.90;;;;;;4226790;28;20465;-70
2021/09/03 01:27:06;;;;;;;9.32;6.45;;;30.20;99.90;;;;;;4235979;28;20544;-69
2021/09/03 01:29:12;;;;;;;8.95;6.82;;;30.20;99.90;;;;;;4231214;28;20362;-69
2021/09/03 01:31:16;;;;;;;9.48;7.35;;;30.30;99.90;;;;;;4225750;27;20040;-70
2021/09/03 01:33:21;;;;;;;11.25;6.57;;;30.20;99.90;;;;;;4226523;28;20401;-69
2021/09/03 01:35:26;;;;;;;10.38;6.65;;;30.20;99.90;;;;;;4227180;27;20139;-70
2021/09/03 01:37:30;;;;;;;9.95;6.53;;;30.30;99.90;;;;;;4225469;27;20046;-70
2021/09/03 01:39:35;;;;;;;7.72;6.32;;;30.40;99.90;;;;;;4225296;27;20074;-70
2021/09/03 01:41:40;;;;;;;8.30;6.40;;;30.40;99.90;;;;;;4229444;27;20039;-70
2021/09/03 01:43:44;;;;;;;8.27;6.03;;;30.60;99.90;;;;;;4229345;27;20092;-71
2021/09/03 01:45:48;;;;;;;8.52;5.90;;;30.60;99.90;;;;;;4231614;27;20049;-70
2021/09/03 01:47:53;;;;;;;8.50;5.68;;;30.60;99.90;;;;;;4226900;27;20075;-70
2021/09/03 01:49:57;;;;;;;6.45;5.72;;;30.70;99.90;;;;;;4228727;27;20046;-70
2021/09/03 01:52:02;;;;;;;7.75;6.18;;;30.80;99.90;;;;;;4229983;27;20039;-70
2021/09/03 01:54:07;;;;;;;8.02;6.28;;;30.80;99.90;;;;;;4228470;27;20074;-70
2021/09/03 01:56:12;;;;;;;8.77;5.90;;;30.80;99.90;;;;;;4232965;27;20482;-70
2021/09/03 01:58:17;;;;;;;9.20;5.65;;;30.80;99.90;;;;;;4231841;27;20035;-71
2021/09/03 02:00:21;;;;;;;9.35;5.93;;;30.90;99.90;;;;;;4233456;27;20043;-71
2021/09/03 02:02:26;;;;;;;9.65;6.82;;;31.00;99.90;;;;;;4229546;27;20543;-71
2021/09/03 02:04:30;;;;;;;10.45;5.88;;;31.10;99.90;;;;;;4231904;27;20118;-71
2021/09/03 02:06:35;;;;;;;20.55;7.45;;;31.20;99.90;;;;;;4231499;27;20051;-70
2021/09/03 02:08:39;;;;;;;13.52;6.30;;;31.20;99.90;;;;;;4230609;28;20097;-70
2021/09/03 02:10:44;;;;;;;8.13;5.75;;;31.30;99.90;;;;;;4231701;27;20047;-70
2021/09/03 02:12:48;;;;;;;8.23;5.40;;;31.30;99.90;;;;;;4228271;27;20031;-70
2021/09/03 02:14:52;;;;;;;10.13;5.43;;;31.20;99.90;;;;;;4235800;27;20048;-70
2021/09/03 02:16:56;;;;;;;11.68;5.65;;;31.20;99.90;;;;;;4234641;27;20450;-71
2021/09/03 02:19:01;;;;;;;10.25;5.50;;;31.30;99.90;;;;;;4232689;27;20135;-70
2021/09/03 02:21:05;;;;;;;7.57;4.97;;;31.30;99.90;;;;;;4230919;27;20532;-70
2021/09/03 02:23:10;;;;;;;5.57;4.80;;;31.40;99.90;;;;;;4227886;27;20130;-71
2021/09/03 02:25:14;;;;;;;7.40;4.13;;;31.50;99.90;;;;;;4233174;27;20050;-71
2021/09/03 02:27:19;;;;;;;5.45;4.45;;;31.50;99.90;;;;;;4235374;27;20085;-70
2021/09/03 02:29:23;;;;;;;10.32;4.97;;;31.50;99.90;;;;;;4234161;27;20154;-70
2021/09/03 02:31:28;;;;;;;7.57;5.10;;;31.60;99.90;;;;;;4229680;27;20035;-70
2021/09/03 02:33:32;;;;;;;11.48;6.03;;;31.60;99.90;;;;;;4234743;27;20047;-71
2021/09/03 02:35:37;;;;;;;8.18;5.78;;;31.70;99.90;;;;;;4235524;27;20035;-70
2021/09/03 02:37:41;;;;;;;7.15;5.47;;;31.70;99.90;;;;;;4233989;27;20100;-70
2021/09/03 02:39:48;;;;;;;6.10;5.30;;;31.80;99.90;;;;;;4229027;28;20069;-69
2021/09/03 02:41:52;;;;;;;7.22;5.78;;;31.90;99.90;;;;;;4228977;27;20498;-71
2021/09/03 02:43:57;;;;;;;6.85;5.97;;;32.00;99.90;;;;;;4229666;27;20067;-71
2021/09/03 02:46:02;;;;;;;10.07;5.90;;;32.00;99.90;;;;;;4230421;27;20389;-71
2021/09/03 02:48:06;;;;;;;6.95;5.70;;;32.10;99.90;;;;;;4220775;28;20048;-71
2021/09/03 02:50:11;;;;;;;7.07;5.18;;;32.00;99.90;;;;;;4229044;27;20512;-71
2021/09/03 02:52:15;;;;;;;6.38;5.13;;;32.10;99.90;;;;;;4228719;27;20031;-70
2021/09/03 02:54:20;;;;;;;7.13;5.32;;;32.10;99.90;;;;;;4230049;27;20505;-71
2021/09/03 02:56:24;;;;;;;5.30;4.63;;;32.20;99.90;;;;;;4228061;27;20530;-68
2021/09/03 02:58:29;;;;;;;5.50;4.50;;;32.30;99.90;;;;;;4229731;28;20047;-68
2021/09/03 03:00:34;;;;;;;7.57;4.47;;;32.30;99.90;;;;;;4229213;28;20054;-69
2021/09/03 03:02:38;;;;;;;5.93;4.38;;;32.20;99.90;;;;;;4226868;28;20446;-71
2021/09/03 03:04:44;;;;;;;6.60;4.60;;;32.30;99.90;;;;;;4232372;27;20101;-68
2021/09/03 03:06:49;;;;;;;6.55;4.90;;;32.20;99.90;;;;;;4230729;27;20404;-68
2021/09/03 03:08:53;;;;;;;6.28;4.50;;;32.20;99.90;;;;;;4230090;27;20062;-71
2021/09/03 03:10:59;;;;;;;8.55;4.30;;;32.20;99.90;;;;;;4230506;27;20050;-71
2021/09/03 03:13:19;;;;;;;6.47;4.90;;;32.10;99.90;;;;;;4227751;28;20067;-68
2021/09/03 03:15:24;;;;;;;5.20;4.70;;;32.10;99.90;;;;;;4230276;28;20051;-71
2021/09/03 03:17:28;;;;;;;7.28;4.47;;;32.00;99.90;;;;;;4231771;27;20105;-71
2021/09/03 03:19:33;;;;;;;8.15;4.90;;;32.10;99.90;;;;;;4230867;27;20283;-71
2021/09/03 03:21:37;;;;;;;5.45;4.40;;;32.20;99.90;;;;;;4235223;27;20071;-71
2021/09/03 03:23:42;;;;;;;9.13;4.50;;;32.30;99.90;;;;;;4230933;27;20181;-68
2021/09/03 03:25:46;;;;;;;5.97;4.25;;;32.40;99.90;;;;;;4234549;27;20049;-69
2021/09/03 03:27:51;;;;;;;5.32;4.30;;;32.40;99.90;;;;;;4232563;27;20039;-68
2021/09/03 03:29:55;;;;;;;7.78;5.15;;;32.40;99.90;;;;;;4230878;27;20062;-68
2021/09/03 03:32:00;;;;;;;8.05;5.20;;;32.40;99.90;;;;;;4231823;27;20454;-68
2021/09/03 03:34:04;;;;;;;5.82;4.00;;;32.50;99.90;;;;;;4228275;27;20089;-69
2021/09/03 03:36:08;;;;;;;6.57;4.47;;;32.60;99.90;;;;;;4231716;27;20043;-68
2021/09/03 03:38:13;;;;;;;8.38;4.13;;;32.70;99.90;;;;;;4231585;27;20059;-71
2021/09/03 03:40:18;;;;;;;8.88;4.53;;;32.70;99.90;;;;;;4229811;27;20229;-68
2021/09/03 03:42:22;;;;;;;5.78;3.63;;;32.70;99.90;;;;;;4229713;27;20127;-70
2021/09/03 03:44:26;;;;;;;6.45;3.60;;;32.60;99.90;;;;;;4233539;27;20115;-71
2021/09/03 03:46:30;;;;;;;6.35;4.15;;;32.50;99.90;;;;;;4234454;27;20108;-68
2021/09/03 03:48:35;;;;;;;5.50;3.90;;;32.50;99.90;;;;;;4239375;27;20660;-68
2021/09/03 03:50:39;;;;;;;9.10;4.93;;;32.50;99.90;;;;;;4243661;27;20096;-69
2021/09/03 03:52:43;;;;;;;5.15;4.32;;;32.50;99.90;;;;;;4234465;27;20476;-69
2021/09/03 03:54:48;;;;;;;6.40;3.85;;;32.50;99.90;;;;;;4234617;27;20107;-69
2021/09/03 03:56:52;;;;;;;7.45;4.05;;;32.60;99.90;;;;;;4236788;27;20089;-68
2021/09/03 03:58:57;;;;;;;4.00;3.60;;;32.60;99.90;;;;;;4232796;27;20176;-68
2021/09/03 04:01:01;;;;;;;4.68;3.88;;;32.60;99.90;;;;;;4236967;27;20043;-67
2021/09/03 04:03:06;;;;;;;5.43;3.65;;;32.60;99.90;;;;;;4236823;27;20146;-67
2021/09/03 04:05:11;;;;;;;6.32;4.00;;;32.70;99.90;;;;;;4229746;27;20130;-68
2021/09/03 04:07:15;;;;;;;4.05;3.50;;;32.80;99.90;;;;;;4230175;27;20088;-68
2021/09/03 04:09:20;;;;;;;6.30;3.72;;;32.80;99.90;;;;;;4227431;27;20059;-68
2021/09/03 04:11:25;;;;;;;4.75;3.58;;;32.80;99.90;;;;;;4228593;27;20486;-67
2021/09/03 04:13:30;;;;;;;5.25;4.03;;;32.80;99.90;;;;;;4222226;28;20055;-67
2021/09/03 04:15:35;;;;;;;4.10;3.70;;;32.90;99.90;;;;;;4228828;28;20488;-67
2021/09/03 04:17:39;;;;;;;6.50;3.80;;;32.90;99.90;;;;;;4229810;27;20578;-67
2021/09/03 04:19:44;;;;;;;4.78;3.88;;;33.00;99.90;;;;;;4241145;27;20540;-67
2021/09/03 04:21:48;;;;;;;6.05;3.63;;;33.00;99.90;;;;;;4211794;28;20443;-67
2021/09/03 04:23:52;;;;;;;4.18;3.28;;;33.00;99.90;;;;;;4229855;27;20048;-67
2021/09/03 04:26:00;;;;;;;4.40;3.70;;;33.00;99.90;;;;;;4226402;28;20047;-67
2021/09/03 04:28:05;;;;;;;4.82;3.78;;;32.90;99.90;;;;;;4230917;28;20517;-67
2021/09/03 04:30:10;;;;;;;3.55;3.20;;;32.90;99.90;;;;;;4228731;28;20134;-67
2021/09/03 04:32:15;;;;;;;7.38;4.32;;;32.80;99.90;;;;;;4215516;28;20518;-67
2021/09/03 04:34:19;;;;;;;6.53;4.22;;;32.80;99.90;;;;;;4230552;27;20035;-67
2021/09/03 04:36:23;;;;;;;8.93;4.70;;;32.60;99.90;;;;;;4231955;27;20039;-67
2021/09/03 04:38:30;;;;;;;5.72;5.07;;;32.50;99.90;;;;;;4230574;28;20051;-67
2021/09/03 04:40:34;;;;;;;6.50;4.85;;;32.10;99.90;;;;;;4229924;28;20474;-67
2021/09/03 04:42:39;;;;;;;7.15;4.95;;;32.10;99.90;;;;;;4231829;28;20061;-67
2021/09/03 04:44:43;;;;;;;5.07;4.57;;;32.00;99.90;;;;;;4227181;28;20048;-67
2021/09/03 04:46:47;;;;;;;5.75;4.68;;;32.10;99.90;;;;;;4228698;28;20066;-67
2021/09/03 04:48:52;;;;;;;8.15;4.53;;;32.10;99.90;;;;;;4232406;28;20131;-67
2021/09/03 04:50:56;;;;;;;6.97;4.45;;;32.20;99.90;;;;;;4230727;28;20036;-67
2021/09/03 04:53:02;;;;;;;6.82;4.25;;;32.40;99.90;;;;;;4232341;28;20069;-67
2021/09/03 04:55:07;;;;;;;5.05;4.40;;;32.60;99.90;;;;;;4229834;28;20039;-67
2021/09/03 04:57:11;;;;;;;5.40;4.45;;;32.80;99.90;;;;;;4228754;27;20048;-67
2021/09/03 04:59:15;;;;;;;5.20;4.10;;;32.90;99.90;;;;;;4228540;28;20402;-67
2021/09/03 05:01:20;;;;;;;5.10;3.90;;;33.00;99.90;;;;;;4226024;28;20046;-67
2021/09/03 05:03:25;;;;;;;5.05;3.45;;;33.10;99.90;;;;;;4229113;28;20051;-67
2021/09/03 05:05:29;;;;;;;6.63;3.58;;;33.20;99.90;;;;;;4233387;27;20062;-68
2021/09/03 05:07:34;;;;;;;4.57;3.22;;;33.30;99.90;;;;;;4232483;27;20066;-67
2021/09/03 05:09:38;;;;;;;3.30;3.00;;;33.30;99.90;;;;;;4232756;27;20050;-67
2021/09/03 05:11:42;;;;;;;4.43;3.60;;;33.20;99.90;;;;;;4233034;27;20088;-67
2021/09/03 05:13:47;;;;;;;4.68;3.38;;;33.20;99.90;;;;;;4232661;27;20084;-67
2021/09/03 05:15:51;;;;;;;3.85;3.25;;;33.30;99.90;;;;;;4234654;27;20039;-67
2021/09/03 05:17:55;;;;;;;4.22;3.25;;;33.30;99.80;;;;;;4235280;27;20549;-68
2021/09/03 05:19:59;;;;;;;2.97;2.65;;;33.40;99.90;;;;;;4233809;27;20035;-67
2021/09/03 05:22:04;;;;;;;4.40;3.50;;;33.50;99.70;;;;;;4233553;27;20533;-66
2021/09/03 05:24:09;;;;;;;4.45;3.30;;;33.50;99.40;;;;;;4234932;27;20417;-69
2021/09/03 05:26:13;;;;;;;4.57;4.18;;;33.60;99.20;;;;;;4234110;27;20039;-70
2021/09/03 05:28:36;;;;;;;6.28;4.10;;;33.70;99.70;;;;;;4232137;27;20136;-70
2021/09/03 05:30:59;;;;;;;4.40;4.00;;;33.80;99.30;;;;;;4231175;27;20082;-69
2021/09/03 05:33:23;;;;;;;3.80;3.20;;;33.80;99.40;;;;;;4227174;28;20079;-67
2021/09/03 05:35:48;;;;;;;3.92;3.25;;;33.90;97.70;;;;;;4228055;27;20044;-69
2021/09/03 05:38:13;;;;;;;2.85;2.55;;;33.90;96.70;;;;;;4230337;27;20061;-67
2021/09/03 05:40:38;;;;;;;3.00;2.67;;;33.90;97.80;;;;;;4228160;27;20043;-69
2021/09/03 05:43:02;;;;;;;4.43;2.70;;;34.00;97.50;;;;;;4230976;27;20127;-69
2021/09/03 05:45:07;;;;;;;4.40;2.88;;;34.00;94.90;;;;;;4231006;27;20078;-69
2021/09/03 05:47:11;;;;;;;4.43;2.92;;;33.90;96.40;;;;;;4233014;27;20067;-66
2021/09/03 05:49:28;;;;;;;3.28;2.70;;;34.00;96.60;;;;;;4228883;28;20108;-67
2021/09/03 05:51:33;;;;;;;4.82;2.40;;;34.10;96.90;;;;;;4233244;27;20051;-67
2021/09/03 05:53:37;;;;;;;5.32;2.83;;;34.10;97.00;;;;;;4231352;27;20132;-67
2021/09/03 05:55:42;;;;;;;3.38;2.45;;;34.10;97.00;;;;;;4230310;27;20520;-67
2021/09/03 05:57:47;;;;;;;3.55;2.50;;;34.10;96.90;;;;;;4234934;27;20517;-67
2021/09/03 05:59:52;;;;;;;4.40;3.00;;;34.20;97.00;;;;;;4238686;27;20434;-67
2021/09/03 06:01:56;;;;;;;3.00;2.70;;;34.30;96.70;;;;;;4236949;27;20047;-67
2021/09/03 06:04:01;;;;;;;3.40;2.83;;;34.10;96.70;;;;;;4233217;27;20443;-67
2021/09/03 06:06:06;;;;;;;3.08;2.60;;;34.20;97.30;;;;;;4230911;27;20044;-66
2021/09/03 06:08:11;;;;;;;3.63;2.60;;;34.30;97.20;;;;;;4238914;27;20138;-67
2021/09/03 06:10:15;;;;;;;4.50;2.63;;;34.30;96.70;;;;;;4238226;27;20409;-67
2021/09/03 06:12:20;;;;;;;3.63;2.63;;;34.20;96.70;;;;;;4236675;27;20030;-67
2021/09/03 06:14:24;;;;;;;7.15;2.78;;;34.30;96.10;;;;;;4237120;27;20039;-67
2021/09/03 06:16:29;;;;;;;2.80;2.60;;;34.30;96.80;;;;;;4235428;27;20050;-67
2021/09/03 06:18:33;;;;;;;4.80;3.05;;;34.30;97.30;;;;;;4232492;27;20047;-67
2021/09/03 06:20:38;;;;;;;3.70;3.08;;;34.30;97.20;;;;;;4235358;27;20047;-67
2021/09/03 06:22:42;;;;;;;5.10;3.08;;;34.30;96.80;;;;;;4239262;27;20463;-68
2021/09/03 06:24:47;;;;;;;4.30;2.80;;;34.10;96.80;;;;;;4239722;27;20489;-67
2021/09/03 06:26:52;;;;;;;5.75;3.30;;;34.00;96.80;;;;;;4235444;27;20113;-67
2021/09/03 06:28:58;;;;;;;5.22;3.10;;;34.00;96.90;;;;;;4236008;27;20043;-68
2021/09/03 06:31:03;;;;;;;3.65;2.60;;;33.90;97.30;;;;;;4239461;27;20043;-68
2021/09/03 06:33:08;;;;;;;4.53;2.83;;;33.80;97.60;;;;;;4233813;27;20043;-67
2021/09/03 06:35:12;;;;;;;3.03;2.40;;;33.80;97.70;;;;;;4230174;27;20227;-68
2021/09/03 06:37:17;;;;;;;4.15;3.20;;;33.80;97.90;;;;;;4229993;27;20043;-67
2021/09/03 06:39:21;;;;;;;4.05;3.00;;;33.70;97.90;;;;;;4234478;27;20042;-67
2021/09/03 06:41:26;;;;;;;3.88;2.90;;;33.70;98.20;;;;;;4234788;27;20081;-67
2021/09/03 06:43:30;;;;;;;4.97;3.33;;;33.60;98.00;;;;;;4233001;27;20057;-68
2021/09/03 06:45:36;;;;;;;3.45;3.00;;;33.50;97.20;;;;;;4239453;27;20093;-67
2021/09/03 06:47:41;;;;;;;7.28;3.30;;;33.40;98.50;;;;;;4229945;27;20047;-67
2021/09/03 06:49:45;;;;;;;4.53;3.10;;;33.30;98.70;;;;;;4229052;27;20044;-67
2021/09/03 06:51:50;;;;;;;4.70;2.85;;;33.30;98.90;;;;;;4229123;27;20044;-67
2021/09/03 06:53:55;;;;;;;6.45;3.38;;;33.40;99.10;;;;;;4228122;27;20513;-67
2021/09/03 06:55:59;;;;;;;5.10;3.47;;;33.40;98.90;;;;;;4230834;27;20090;-67
2021/09/03 06:58:03;;;;;;;4.60;2.90;;;33.40;99.10;;;;;;4229058;28;21028;-67
2021/09/03 07:00:10;;;;;;;4.10;3.00;;;33.40;99.50;;;;;;4227177;27;20514;-67
2021/09/03 07:02:15;;;;;;;5.15;2.90;;;33.50;99.40;;;;;;4230204;27;20055;-67
2021/09/03 07:04:20;;;;;;;7.10;3.30;;;33.40;99.30;;;;;;4229289;27;20059;-67
2021/09/03 07:06:24;;;;;;;4.82;3.58;;;33.30;99.00;;;;;;4228260;27;20139;-68
2021/09/03 07:08:28;;;;;;;3.58;3.15;;;32.70;99.90;;;;;;4228996;27;20510;-67
2021/09/03 07:10:33;;;;;;;4.93;3.53;;;32.50;99.90;;;;;;4231348;27;20379;-67
2021/09/03 07:12:39;;;;;;;5.57;3.45;;;32.40;99.90;;;;;;4228473;28;20036;-67
2021/09/03 07:14:44;;;;;;;4.95;3.60;;;32.40;99.90;;;;;;4228874;27;20039;-67
2021/09/03 07:16:48;;;;;;;10.10;7.57;;;32.20;99.90;;;;;;4226145;27;20077;-67
2021/09/03 07:18:53;;;;;;;6.65;4.80;;;32.20;99.90;;;;;;4228212;27;20035;-68
2021/09/03 07:20:57;;;;;;;5.40;4.05;;;32.00;99.90;;;;;;4227820;27;20520;-68
2021/09/03 07:23:02;;;;;;;6.05;3.63;;;31.80;99.90;;;;;;4231280;27;20056;-67
2021/09/03 07:25:07;;;;;;;4.03;3.47;;;31.60;99.90;;;;;;4231449;27;20043;-67
2021/09/03 07:27:11;;;;;;;4.72;3.53;;;31.50;99.90;;;;;;4231502;27;20502;-67
2021/09/03 07:29:15;;;;;;;5.60;3.55;;;31.50;99.90;;;;;;4230098;27;20040;-67
2021/09/03 07:31:20;;;;;;;4.93;3.42;;;31.40;99.90;;;;;;4230538;27;20077;-67
2021/09/03 07:33:25;;;;;;;7.40;3.50;;;31.20;99.90;;;;;;4228345;27;20080;-67
2021/09/03 07:35:30;;;;;;;4.25;3.30;;;31.10;99.90;;;;;;4234239;27;20119;-67
2021/09/03 07:37:35;;;;;;;5.55;3.58;;;31.10;99.90;;;;;;4239019;27;20566;-67
2021/09/03 07:39:39;;;;;;;5.05;3.53;;;31.30;99.90;;;;;;4237164;27;20544;-67
2021/09/03 07:41:44;;;;;;;4.60;3.65;;;31.40;99.90;;;;;;4215356;28;20050;-66
2021/09/03 07:43:48;;;;;;;6.85;3.97;;;31.40;99.90;;;;;;4236757;27;20533;-66
2021/09/03 07:45:55;;;;;;;4.38;3.88;;;31.40;99.90;;;;;;4236715;27;20053;-67
2021/09/03 07:48:00;;;;;;;6.80;3.63;;;31.50;99.90;;;;;;4236395;27;20061;-67
2021/09/03 07:50:05;;;;;;;4.38;3.45;;;31.40;99.90;;;;;;4232310;27;20435;-66
2021/09/03 07:52:09;;;;;;;5.13;3.13;;;31.30;99.90;;;;;;4233070;27;20040;-66
2021/09/03 07:54:14;;;;;;;5.93;2.50;;;31.40;99.90;;;;;;4225914;28;20036;-66
2021/09/03 07:56:18;;;;;;;3.03;2.65;;;31.40;99.90;;;;;;4241625;27;20481;-66
2021/09/03 07:58:22;;;;;;;5.03;2.70;;;31.40;99.90;;;;;;4234910;27;20055;-66
2021/09/03 08:00:27;;;;;;;6.63;2.60;;;31.30;99.90;;;;;;4231571;27;20123;-66
2021/09/03 08:02:31;;;;;;;6.47;2.70;;;31.30;99.90;;;;;;4231466;27;20069;-67
2021/09/03 08:04:36;;;;;;;3.72;2.53;;;31.30;99.90;;;;;;4222748;27;20144;-66
2021/09/03 08:06:42;;;;;;;4.00;2.58;;;31.20;99.90;;;;;;4219505;28;20051;-67
2021/09/03 08:08:47;;;;;;;6.20;2.60;;;31.20;99.90;;;;;;4214389;28;20071;-67
2021/09/03 08:10:51;;;;;;;5.50;2.63;;;31.30;99.90;;;;;;4217222;28;20048;-66
2021/09/03 08:12:55;;;;;;;5.03;3.10;;;31.40;99.90;;;;;;4218565;28;20474;-66
2021/09/03 08:15:00;;;;;;;8.55;3.22;;;31.40;99.90;;;;;;4217061;28;20105;-66
2021/09/03 08:17:04;;;;;;;6.75;3.22;;;31.30;99.90;;;;;;4218063;28;20039;-66
2021/09/03 08:19:09;;;;;;;8.35;2.85;;;31.30;99.90;;;;;;4217771;28;20047;-66
2021/09/03 08:21:13;;;;;;;8.13;3.00;;;31.30;99.90;;;;;;4213761;28;20044;-66
2021/09/03 08:23:17;;;;;;;5.15;3.08;;;31.30;99.90;;;;;;4220590;28;20590;-66
2021/09/03 08:25:22;;;;;;;8.35;3.58;;;31.20;99.90;;;;;;4219943;28;20092;-67
2021/09/03 08:27:26;;;;;;;5.53;3.25;;;31.20;99.90;;;;;;4217703;28;20478;-66
2021/09/03 08:32:13;;;;;;;4.78;2.55;;;31.10;99.90;;;;;;4220377;28;20051;-66
2021/09/03 08:34:17;;;;;;;4.38;2.97;;;31.00;99.90;;;;;;4220302;28;20031;-66
2021/09/03 08:36:21;;;;;;;5.40;2.78;;;30.90;99.90;;;;;;4218854;28;20076;-66
2021/09/03 08:38:26;;;;;;;4.55;3.20;;;30.80;99.90;;;;;;4219325;28;20040;-66
2021/09/03 08:40:30;;;;;;;8.63;3.17;;;30.80;99.90;;;;;;4217322;28;20138;-66
2021/09/03 08:42:36;;;;;;;7.78;3.22;;;30.90;99.90;;;;;;4217707;28;20093;-66
2021/09/03 08:44:40;;;;;;;5.22;3.42;;;30.90;99.90;;;;;;4216150;28;20093;-66
2021/09/03 08:46:45;;;;;;;6.60;3.22;;;30.90;99.90;;;;;;4216195;28;20131;-67
2021/09/03 08:48:50;;;;;;;6.68;2.90;;;30.90;99.90;;;;;;4213940;28;20122;-68
2021/09/03 08:50:56;;;;;;;12.55;7.65;;;30.90;99.90;;;;;;4213144;28;20040;-67
2021/09/03 08:53:00;;;;;;;27.63;18.90;;;30.90;99.90;;;;;;4211647;28;20047;-69
2021/09/03 08:55:06;;;;;;;45.95;36.15;;;30.90;99.90;;;;;;4212089;28;20052;-69
2021/09/03 08:57:13;;;;;;;51.33;41.75;;;30.90;99.90;;;;;;4216190;28;20399;-68
2021/09/03 08:59:18;;;;;;;47.00;36.72;;;30.60;99.90;;;;;;4212744;28;20047;-68
2021/09/03 09:01:22;;;;;;;31.27;25.73;;;30.60;99.90;;;;;;4215478;28;21079;-68
2021/09/03 09:03:27;;;;;;;15.90;11.95;;;30.60;99.90;;;;;;4215443;28;20055;-68
2021/09/03 09:05:45;;;;;;;9.40;5.70;;;30.60;99.90;;;;;;4201940;28;20077;-67
2021/09/03 09:08:11;;;;;;;7.90;4.47;;;30.60;99.90;;;;;;4234399;28;20047;-67
2021/09/03 09:10:16;;;;;;;12.85;7.07;;;30.60;99.90;;;;;;4234919;28;20036;-68
2021/09/03 09:12:20;;;;;;;9.82;5.00;;;30.40;99.90;;;;;;4234643;28;20051;-67
2021/09/03 09:14:24;;;;;;;5.43;4.38;;;30.30;99.90;;;;;;4229284;28;20441;-68
2021/09/03 09:16:32;;;;;;;5.60;2.83;;;30.30;99.90;;;;;;4230216;28;20053;-68
2021/09/03 09:18:46;;;;;;;7.35;2.90;;;30.30;99.90;;;;;;4228455;28;20721;-68
2021/09/03 09:20:51;;;;;;;7.30;3.63;;;30.20;99.90;;;;;;4225388;28;20042;-68
2021/09/03 09:22:57;;;;;;;3.05;2.13;;;30.10;99.90;;;;;;4212695;28;20493;-68
2021/09/03 09:25:18;;;;;;;4.68;1.80;;;30.10;99.90;;;;;;4239174;28;20303;-68
2021/09/03 09:27:27;;;;;;;3.20;1.60;;;30.10;99.90;;;;;;4225464;28;20040;-68
2021/09/03 09:29:36;;;;;;;3.92;1.67;;;30.10;99.90;;;;;;4232496;28;20054;-68
2021/09/03 09:31:40;;;;;;;6.05;2.13;;;30.10;99.90;;;;;;4232565;28;20120;-68
2021/09/03 09:33:45;;;;;;;3.58;2.00;;;30.10;99.90;;;;;;4225290;28;20035;-68
2021/09/03 09:35:51;;;;;;;4.93;1.80;;;30.10;99.90;;;;;;4235110;28;20151;-68
2021/09/03 09:37:55;;;;;;;4.50;2.25;;;30.10;99.90;;;;;;4231595;28;20048;-68
2021/09/03 09:40:01;;;;;;;3.00;1.70;;;30.20;99.90;;;;;;4197935;28;20079;-68
2021/09/03 09:42:06;;;;;;;4.30;1.52;;;30.10;99.90;;;;;;4235098;28;20065;-68
2021/09/03 09:44:10;;;;;;;4.32;1.70;;;30.10;99.90;;;;;;4228080;28;20066;-68
2021/09/03 09:46:22;;;;;;;3.63;1.60;;;30.10;99.90;;;;;;4230408;28;20756;-67
2021/09/03 09:48:27;;;;;;;3.13;2.00;;;30.00;99.90;;;;;;4234112;28;20048;-67
2021/09/03 09:50:32;;;;;;;3.10;1.73;;;29.90;99.90;;;;;;4230903;28;20043;-67
2021/09/03 09:52:37;;;;;;;3.60;1.40;;;29.90;99.90;;;;;;4231907;27;20040;-68
2021/09/03 09:54:42;;;;;;;6.85;1.92;;;29.90;99.90;;;;;;4233696;27;20039;-68
2021/09/03 09:56:54;;;;;;;4.47;1.42;;;29.90;99.90;;;;;;4238066;27;20042;-68
2021/09/03 09:59:00;;;;;;;2.63;1.50;;;29.80;99.90;;;;;;4232901;27;20059;-68
2021/09/03 10:01:04;;;;;;;2.25;1.80;;;29.70;99.90;;;;;;4235438;27;20049;-68
2021/09/03 10:03:08;;;;;;;2.58;1.65;;;29.70;99.90;;;;;;4237200;27;20557;-68
2021/09/03 10:05:13;;;;;;;4.50;1.50;;;29.80;99.90;;;;;;4219467;27;20101;-69
2021/09/03 10:07:17;;;;;;;3.72;1.70;;;29.70;99.90;;;;;;4210195;28;20043;-68
2021/09/03 10:09:23;;;;;;;3.55;1.80;;;29.80;99.90;;;;;;4219437;28;20036;-68
2021/09/03 10:11:27;;;;;;;4.90;1.77;;;29.80;99.90;;;;;;4217301;28;20484;-67
2021/09/03 10:13:32;;;;;;;2.95;1.58;;;29.80;99.90;;;;;;4214348;28;20098;-67
2021/09/03 10:15:36;;;;;;;3.55;1.48;;;29.80;99.90;;;;;;4213823;28;20515;-67
2021/09/03 10:17:41;;;;;;;2.92;1.90;;;29.70;99.90;;;;;;4223478;28;20043;-67
2021/09/03 10:19:45;;;;;;;3.25;1.58;;;29.60;99.90;;;;;;4226748;28;20047;-67
2021/09/03 10:22:11;;;;;;;;;;;29.60;99.90;;;;;;4197958;28;20130;-67
2021/09/03 10:24:35;;;;;;;4.70;2.38;;;29.60;99.90;;;;;;4215874;28;20301;-67
2021/09/03 10:27:00;;;;;;;4.20;2.30;;;29.60;99.90;;;;;;4205350;28;20059;-67
2021/09/03 10:29:24;;;;;;;3.42;2.30;;;29.60;99.90;;;;;;4213481;28;20055;-67
2021/09/03 10:31:28;;;;;;;6.07;3.78;;;29.50;99.90;;;;;;4224693;28;20052;-67
2021/09/03 10:33:51;;;;;;;36.17;26.45;;;29.60;99.90;;;;;;4219981;28;20043;-67
2021/09/03 10:35:56;;;;;;;37.00;28.27;;;29.60;99.90;;;;;;4222106;28;20040;-67
2021/09/03 10:38:27;;;;;;;19.55;16.00;;;29.60;99.90;;;;;;4209108;28;20080;-68
2021/09/03 10:40:39;;;;;;;17.55;12.05;;;29.60;99.90;;;;;;4213957;28;20055;-68
2021/09/03 10:42:45;;;;;;;10.65;7.28;;;29.50;99.90;;;;;;4203487;28;20063;-68
2021/09/03 10:45:07;;;;;;;9.45;5.55;;;29.50;99.90;;;;;;4219276;28;20040;-67
2021/09/03 10:47:51;;;;;;;5.35;3.45;;;29.50;99.90;;;;;;4216169;28;20047;-67
2021/09/03 10:50:27;;;;;;;3.78;2.33;;;29.50;99.90;;;;;;4216854;28;20048;-67
2021/09/03 10:52:32;;;;;;;6.25;2.35;;;29.50;99.90;;;;;;4215163;28;20051;-67
2021/09/03 10:54:36;;;;;;;3.72;2.25;;;29.50;99.90;;;;;;4213999;28;20494;-67
2021/09/03 10:56:55;;;;;;;4.72;2.50;;;29.50;99.90;;;;;;4212459;28;20551;-67
2021/09/03 10:59:07;;;;;;;4.30;2.88;;;29.50;99.90;;;;;;4211450;28;20454;-68